Time;durP1;ratioP1;P1;durP2;ratioP2;P2;SDS_P1;SDS_P2;PMS_P1;PMS_P2;Temp;Humidity;BMP_temperature;BMP_pressure;BME280_temperature;BME280_humidity;BME280_pressure;Samples;Min_cycle;Max_cycle;Signal;HPM_P1;HPM_P2
2022/06/22 00:02:07;;;;;;;6.53;2.20;;;;;;;17.06;100.00;100956.59;5052091;28;20044;-85
2022/06/22 00:04:44;;;;;;;9.25;2.35;;;;;;;16.91;100.00;100912.59;5056494;28;20079;-85
2022/06/22 00:07:28;;;;;;;6.55;1.90;;;;;;;17.23;100.00;100925.63;5055044;28;20040;-85
2022/06/22 00:10:18;;;;;;;4.18;1.45;;;;;;;17.46;100.00;100942.72;5040782;28;20045;-84
2022/06/22 00:12:51;;;;;;;4.57;1.40;;;;;;;17.15;100.00;100883.75;5067761;28;20075;-85
2022/06/22 00:15:40;;;;;;;3.95;1.35;;;;;;;17.58;100.00;100935.75;5039029;28;20052;-85
2022/06/22 00:18:25;;;;;;;6.45;1.60;;;;;;;17.39;100.00;100934.28;5068097;28;20049;-84
2022/06/22 00:20:56;;;;;;;3.83;1.38;;;;;;;16.89;100.00;100870.38;5034040;28;20052;-84
2022/06/22 00:23:28;;;;;;;3.50;1.40;;;;;;;17.17;100.00;100900.38;5054550;28;20053;-84
2022/06/22 00:26:20;;;;;;;2.72;1.10;;;;;;;17.44;100.00;100886.34;5052754;28;20041;-84
2022/06/22 00:28:56;;;;;;;2.97;1.10;;;;;;;17.54;100.00;100910.44;5052982;28;20526;-84
2022/06/22 00:31:49;;;;;;;3.50;1.40;;;;;;;17.38;100.00;100881.47;5051911;28;20049;-84
2022/06/22 00:34:26;;;;;;;3.20;1.33;;;;;;;17.10;100.00;100861.19;5052292;28;20048;-85
2022/06/22 00:37:16;;;;;;;4.63;1.20;;;;;;;17.45;100.00;100907.44;5053281;28;20047;-85
2022/06/22 00:39:46;;;;;;;3.28;1.10;;;;;;;17.42;100.00;100898.84;5042235;28;20059;-85
2022/06/22 00:42:25;;;;;;;3.78;1.38;;;;;;;17.30;100.00;100900.47;5055666;28;20040;-85
2022/06/22 00:45:04;;;;;;;3.30;1.10;;;;;;;17.40;100.00;100896.28;5036708;28;20049;-85
2022/06/22 00:47:44;;;;;;;4.28;1.30;;;;;;;17.63;100.00;100896.59;5050428;28;20055;-85
2022/06/22 00:50:18;;;;;;;3.45;1.33;;;;;;;17.03;100.00;100821.03;5056301;28;20052;-85
2022/06/22 00:53:01;;;;;;;2.90;1.08;;;;;;;17.31;100.00;100821.94;5036610;28;20049;-85
2022/06/22 00:55:34;;;;;;;3.08;1.20;;;;;;;17.65;100.00;100878.81;5042243;28;20495;-84
2022/06/22 00:58:07;;;;;;;3.95;1.20;;;;;;;17.41;100.00;100884.75;5055250;28;20635;-84
2022/06/22 01:00:39;;;;;;;3.90;1.40;;;;;;;17.32;100.00;100863.34;5055218;28;20129;-85
2022/06/22 01:03:16;;;;;;;3.37;1.27;;;;;;;17.73;100.00;100876.53;5049065;28;20045;-85
2022/06/22 01:05:55;;;;;;;5.78;1.83;;;;;;;17.67;100.00;100879.59;5050909;28;20045;-85
2022/06/22 01:08:58;;;;;;;5.53;1.90;;;;;;;17.46;100.00;100887.97;5046945;28;20407;-85
2022/06/22 01:14:37;;;;;;;6.80;2.25;;;;;;;17.39;100.00;100883.16;5054576;28;20055;-85
2022/06/22 01:17:06;;;;;;;4.70;1.88;;;;;;;17.08;100.00;100832.19;5053832;28;20049;-85
2022/06/22 01:20:04;;;;;;;3.15;1.30;;;;;;;16.98;100.00;100808.13;5070527;28;20055;-85
2022/06/22 01:23:11;;;;;;;4.50;1.60;;;;;;;17.31;100.00;100877.50;5050799;28;20052;-85
2022/06/22 01:25:52;;;;;;;4.35;1.67;;;;;;;17.25;100.00;100874.31;5054203;28;20056;-85
2022/06/22 01:28:19;;;;;;;3.85;1.67;;;;;;;17.45;100.00;100837.75;5059934;28;20053;-85
2022/06/22 01:30:51;;;;;;;4.75;1.58;;;;;;;17.39;100.00;100843.47;5056277;28;20041;-84
2022/06/22 01:33:24;;;;;;;3.28;1.27;;;;;;;17.60;100.00;100810.31;5040137;28;20132;-85
2022/06/22 01:35:57;;;;;;;3.53;1.45;;;;;;;17.53;100.00;100809.00;5055062;28;20049;-85
2022/06/22 01:38:28;;;;;;;7.85;1.80;;;;;;;17.86;100.00;100876.59;5052602;28;20049;-85
2022/06/22 01:41:19;;;;;;;4.53;1.50;;;;;;;17.18;100.00;100838.59;5049665;28;20403;-85
2022/06/22 01:43:58;;;;;;;4.63;1.40;;;;;;;17.13;100.00;100816.03;5046480;28;20056;-85
2022/06/22 01:46:46;;;;;;;5.10;1.70;;;;;;;17.52;100.00;100859.41;5057854;28;20056;-85
2022/06/22 01:50:00;;;;;;;4.88;1.80;;;;;;;17.41;100.00;100853.00;5053345;28;20136;-85
2022/06/22 01:52:56;;;;;;;6.33;2.50;;;;;;;17.06;100.00;100856.09;5053450;28;20049;-84
2022/06/22 01:55:34;;;;;;;4.38;1.70;;;;;;;17.15;100.00;100859.94;5058500;28;20450;-84
2022/06/22 01:58:06;;;;;;;4.95;1.88;;;;;;;17.10;100.00;100835.56;5052489;28;20053;-85
2022/06/22 02:00:33;;;;;;;7.60;2.92;;;;;;;16.77;100.00;100838.50;5038985;28;20055;-85
2022/06/22 02:03:18;;;;;;;4.00;1.50;;;;;;;17.24;100.00;100847.94;5054668;28;20048;-85
2022/06/22 02:05:48;;;;;;;5.63;2.08;;;;;;;17.10;100.00;100848.81;5053982;28;20391;-85
2022/06/22 02:08:34;;;;;;;4.55;1.60;;;;;;;17.04;100.00;100833.34;5042568;28;20132;-84
2022/06/22 02:11:15;;;;;;;3.22;1.30;;;;;;;17.05;100.00;100790.03;5044973;28;20072;-85
2022/06/22 02:13:45;;;;;;;4.38;1.65;;;;;;;17.13;100.00;100784.28;5053046;28;20051;-84
2022/06/22 02:16:31;;;;;;;6.30;1.50;;;;;;;17.32;100.00;100810.41;5052730;28;20060;-84
2022/06/22 02:18:58;;;;;;;3.75;1.30;;;;;;;17.44;100.00;100810.47;5052297;28;20051;-84
2022/06/22 02:21:42;;;;;;;2.72;1.23;;;;;;;17.42;100.00;100800.91;5044050;28;20136;-84
2022/06/22 02:24:08;;;;;;;;;;;;;;;17.63;100.00;100811.88;5037130;28;20045;-85
2022/06/22 02:26:54;;;;;;;3.35;1.35;;;;;;;17.49;100.00;100814.59;5049149;28;20290;-85
2022/06/22 02:29:25;;;;;;;3.90;1.45;;;;;;;17.35;100.00;100797.84;5054121;28;20063;-85
2022/06/22 02:31:55;;;;;;;3.78;1.35;;;;;;;17.14;100.00;100778.91;5057795;28;20051;-85
2022/06/22 02:34:24;;;;;;;3.15;1.25;;;;;;;16.91;100.00;100743.34;5055589;28;20067;-85
2022/06/22 02:36:53;;;;;;;3.95;1.38;;;;;;;16.87;100.00;100771.78;5053112;28;20064;-85
2022/06/22 02:39:23;;;;;;;4.40;1.60;;;;;;;17.05;100.00;100800.63;5061082;28;20049;-86
2022/06/22 02:44:41;;;;;;;3.30;1.42;;;;;;;16.79;100.00;100799.63;5053996;28;20056;-85
2022/06/22 02:47:20;;;;;;;5.20;1.80;;;;;;;16.77;100.00;100802.34;5053565;28;20057;-85
2022/06/22 02:49:58;;;;;;;4.30;1.63;;;;;;;16.45;100.00;100754.13;5062469;28;20054;-85
2022/06/22 02:52:36;;;;;;;7.45;2.67;;;;;;;16.25;100.00;100758.84;5046425;28;20155;-85
2022/06/22 02:55:04;;;;;;;5.88;2.13;;;;;;;16.25;100.00;100760.63;5053524;28;20049;-85
2022/06/22 02:57:33;;;;;;;6.57;2.25;;;;;;;16.10;100.00;100780.91;5053689;28;20053;-85
2022/06/22 03:00:01;;;;;;;11.73;4.57;;;;;;;15.79;100.00;100753.69;5066036;28;20059;-84
2022/06/22 03:02:28;;;;;;;6.65;2.25;;;;;;;15.63;100.00;100723.81;5033833;28;20101;-84
2022/06/22 03:04:58;;;;;;;8.35;2.88;;;;;;;15.60;100.00;100729.28;5045933;28;20071;-85
2022/06/22 03:07:25;;;;;;;11.38;2.50;;;;;;;15.62;100.00;100757.28;5053531;28;20045;-84
2022/06/22 03:09:53;;;;;;;11.07;2.78;;;;;;;15.64;100.00;100749.28;5053573;28;20049;-85
2022/06/22 03:12:20;;;;;;;7.00;2.15;;;;;;;15.96;100.00;100778.25;5068388;28;20041;-85
2022/06/22 03:14:58;;;;;;;11.68;4.38;;;;;;;15.75;100.00;100762.72;5052392;28;20055;-85
2022/06/22 03:17:38;;;;;;;8.00;3.08;;;;;;;16.12;100.00;100790.44;5053287;28;20053;-85
2022/06/22 03:20:24;;;;;;;7.70;2.75;;;;;;;15.98;100.00;100774.56;5052009;28;20045;-84
2022/06/22 03:22:54;;;;;;;5.45;2.13;;;;;;;15.85;100.00;100761.25;5035917;28;20467;-85
2022/06/22 03:25:42;;;;;;;10.80;3.60;;;;;;;15.80;100.00;100768.59;5033882;28;20059;-85
2022/06/22 03:28:15;;;;;;;6.38;2.30;;;;;;;15.57;100.00;100719.75;5035275;28;20503;-85
2022/06/22 03:30:51;;;;;;;7.35;2.80;;;;;;;16.12;100.00;100773.75;5059246;28;20059;-85
2022/06/22 03:33:44;;;;;;;7.13;2.45;;;;;;;16.06;100.00;100772.31;5042519;28;20049;-85
2022/06/22 03:36:19;;;;;;;6.65;2.42;;;;;;;16.41;100.00;100764.03;5048541;28;20411;-84
2022/06/22 03:38:55;;;;;;;6.53;2.30;;;;;;;16.43;100.00;100754.25;5066059;28;20051;-85
2022/06/22 03:41:27;;;;;;;6.88;2.50;;;;;;;16.31;100.00;100713.56;5049728;28;20068;-84
2022/06/22 03:44:10;;;;;;;6.60;2.40;;;;;;;16.21;100.00;100688.66;5060605;28;20402;-85
2022/06/22 03:46:45;;;;;;;7.88;2.85;;;;;;;16.27;100.00;100700.63;5047759;28;20056;-85
2022/06/22 03:49:36;;;;;;;8.05;2.83;;;;;;;16.67;100.00;100745.72;5068235;28;20049;-85
2022/06/22 03:52:26;;;;;;;5.97;1.95;;;;;;;16.87;100.00;100742.69;5051307;28;20052;-85
2022/06/22 03:55:21;;;;;;;11.68;3.30;;;;;;;16.39;100.00;100733.38;5047663;28;20045;-85
2022/06/22 03:57:52;;;;;;;8.25;3.22;;;;;;;16.67;100.00;100724.56;5045968;28;20494;-85
2022/06/22 04:00:19;;;;;;;15.32;4.05;;;;;;;16.39;100.00;100715.72;5057183;28;20048;-85
2022/06/22 04:02:48;;;;;;;13.82;3.67;;;;;;;15.98;100.00;100689.22;5050665;28;20127;-85
2022/06/22 04:05:23;;;;;;;9.98;3.17;;;;;;;16.51;100.00;100724.69;5052856;28;20499;-84
2022/06/22 04:07:50;;;;;;;8.07;2.42;;;;;;;16.73;100.00;100707.47;5050495;28;20059;-84
2022/06/22 04:10:32;;;;;;;13.70;4.97;;;;;;;16.38;100.00;100736.94;5052658;28;20049;-84
2022/06/22 04:13:02;;;;;;;;;;;;;;;16.75;100.00;100718.78;5032139;28;20049;-84
2022/06/22 04:15:52;;;;;;;10.35;3.85;;;;;;;16.54;100.00;100705.13;5055014;28;19921;-84
2022/06/22 04:18:29;;;;;;;7.82;2.65;;;;;;;16.46;100.00;100685.31;5055376;28;20711;-84
2022/06/22 04:21:02;;;;;;;6.55;2.50;;;;;;;16.62;100.00;100708.97;5053102;28;20052;-84
2022/06/22 04:23:51;;;;;;;7.47;2.83;;;;;;;16.99;100.00;100741.03;5066437;28;20387;-85
2022/06/22 04:26:30;;;;;;;8.50;3.20;;;;;;;16.81;100.00;100729.81;5063924;28;20049;-85
2022/06/22 04:29:04;;;;;;;7.53;2.63;;;;;;;16.92;100.00;100729.16;5041191;28;20373;-85
2022/06/22 04:31:35;;;;;;;7.35;2.97;;;;;;;16.20;100.00;100665.84;5052378;28;20054;-85
2022/06/22 04:34:07;;;;;;;7.57;2.90;;;;;;;16.46;100.00;100719.66;5049763;28;20513;-84
2022/06/22 04:36:46;;;;;;;7.03;2.67;;;;;;;16.66;100.00;100664.69;5047374;28;20049;-84
2022/06/22 04:39:25;;;;;;;7.20;2.55;;;;;;;16.44;100.00;100647.56;5058784;28;20052;-85
2022/06/22 04:41:53;;;;;;;7.70;2.90;;;;;;;16.27;100.00;100640.72;5052080;28;20147;-84
2022/06/22 04:44:25;;;;;;;5.85;2.10;;;;;;;16.25;100.00;100641.75;5063620;28;20113;-84
2022/06/22 04:47:15;;;;;;;5.47;2.17;;;;;;;16.42;100.00;100659.19;5069121;28;20117;-84
2022/06/22 04:49:51;;;;;;;6.03;2.38;;;;;;;16.73;100.00;100710.94;5066154;28;20080;-84
2022/06/22 04:52:21;;;;;;;5.03;1.90;;;;;;;16.60;100.00;100691.53;5061850;28;20262;-84
2022/06/22 04:54:57;;;;;;;5.43;1.88;;;;;;;16.44;100.00;100655.50;5062501;28;20049;-84
2022/06/22 04:57:31;;;;;;;6.60;2.65;;;;;;;15.95;100.00;100648.00;5044809;28;20331;-84
2022/06/22 05:00:03;;;;;;;5.07;1.98;;;;;;;16.52;100.00;100684.94;5063981;28;20052;-84
2022/06/22 05:02:37;;;;;;;5.68;1.92;;;;;;;16.72;100.00;100660.84;5064899;28;20045;-84
2022/06/22 05:05:33;;;;;;;4.15;1.48;;;;;;;16.59;100.00;100626.38;5065127;28;20076;-83
2022/06/22 05:08:27;;;;;;;4.47;1.73;;;;;;;16.93;100.00;100682.41;5065531;28;20049;-85
2022/06/22 05:10:59;;;;;;;;;;;;;;;17.07;100.00;100692.94;5061351;28;20112;-84
2022/06/22 05:13:32;;;;;;;5.22;1.70;;;;;;;17.03;100.00;100700.25;5063510;28;19947;-84
2022/06/22 05:16:03;;;;;;;4.28;1.63;;;;;;;16.49;100.00;100642.00;5056408;28;20120;-84
2022/06/22 05:18:36;;;;;;;;;;;;;;;16.97;100.00;100679.47;5060053;28;20382;-84
2022/06/22 05:21:34;;;;;;;5.22;1.75;;;;;;;16.98;100.00;100686.47;5064111;28;20011;-84
2022/06/22 05:24:07;;;;;;;3.42;1.30;;;;;;;16.68;100.00;100661.03;5048792;28;20133;-84
2022/06/22 05:26:35;;;;;;;4.20;1.50;;;;;;;16.75;100.00;100669.41;5078812;28;20127;-83
2022/06/22 05:29:42;;;;;;;3.88;1.48;;;;;;;17.23;100.00;100708.66;5054585;28;20048;-84
2022/06/22 05:32:14;;;;;;;2.25;1.00;;;;;;;17.39;100.00;100704.03;5026461;28;20045;-82
2022/06/22 05:34:45;;;;;;;2.55;1.23;;;;;;;17.29;100.00;100692.38;5054701;28;20045;-85
2022/06/22 05:37:19;;;;;;;2.72;1.20;;;;;;;17.17;100.00;100679.94;5062763;28;20072;-84
2022/06/22 05:39:47;;;;;;;2.88;1.15;;;;;;;17.51;100.00;100693.56;5078274;28;20123;-84
2022/06/22 05:42:15;;;;;;;2.35;1.00;;;;;;;17.59;100.00;100705.34;5062871;28;20080;-85
2022/06/22 05:44:43;;;;;;;3.50;1.30;;;;;;;17.58;100.00;100702.78;5060592;28;20147;-85
2022/06/22 05:47:21;;;;;;;2.35;1.20;;;;;;;17.63;100.00;100690.09;5067622;28;20108;-83
2022/06/22 05:50:12;;;;;;;3.10;1.13;;;;;;;17.75;100.00;100726.34;5063194;28;20329;-84
2022/06/22 05:52:47;;;;;;;2.83;1.30;;;;;;;17.56;100.00;100712.66;5081104;28;20040;-84
2022/06/22 05:55:28;;;;;;;1.85;1.08;;;;;;;18.10;100.00;100727.56;5056886;28;20061;-85
2022/06/22 05:58:15;;;;;;;3.45;1.20;;;;;;;17.97;100.00;100687.81;5078949;28;20109;-85
2022/06/22 06:00:49;;;;;;;3.60;1.30;;;;;;;18.33;100.00;100713.53;5058092;28;20447;-84
2022/06/22 06:03:24;;;;;;;3.28;1.05;;;;;;;18.52;100.00;100736.09;5073805;28;20072;-86
2022/06/22 06:06:13;;;;;;;3.47;1.20;;;;;;;18.53;100.00;100733.31;5081889;28;20078;-86
2022/06/22 06:09:01;;;;;;;2.38;1.20;;;;;;;18.60;100.00;100717.84;5058265;28;20064;-86
2022/06/22 06:11:38;;;;;;;6.53;1.65;;;;;;;18.40;100.00;100684.81;5066763;28;20471;-85
2022/06/22 06:14:12;;;;;;;3.28;1.20;;;;;;;18.37;100.00;100693.81;5066995;28;20049;-85
2022/06/22 06:16:47;;;;;;;4.70;1.63;;;;;;;18.56;100.00;100714.56;5082614;28;20072;-86
2022/06/22 06:19:20;;;;;;;5.60;2.13;;;;;;;17.73;100.00;100680.56;5067812;28;20138;-86
2022/06/22 06:21:53;;;;;;;3.50;1.52;;;;;;;18.01;100.00;100694.59;5071133;28;20071;-86
2022/06/22 06:24:19;;;;;;;4.65;1.38;;;;;;;18.11;100.00;100700.94;5068019;28;20064;-86
2022/06/22 06:30:19;;;;;;;4.97;1.42;;;;;;;19.10;100.00;100665.56;5065052;28;20041;-86
2022/06/22 06:33:05;;;;;;;6.18;1.88;;;;;;;18.73;100.00;100655.00;5056610;28;20037;-85
2022/06/22 06:35:50;;;;;;;3.15;1.23;;;;;;;19.12;100.00;100686.69;5065744;28;20533;-85
2022/06/22 06:38:36;;;;;;;3.90;1.50;;;;;;;18.74;100.00;100677.91;5063258;28;20048;-84
2022/06/22 06:41:40;;;;;;;3.53;1.38;;;;;;;18.15;100.00;100675.94;5063642;28;20069;-85
2022/06/22 06:44:18;;;;;;;6.35;1.67;;;;;;;17.93;100.00;100650.09;5054370;28;20071;-86
2022/06/22 06:47:15;;;;;;;2.25;1.10;;;;;;;18.55;100.00;100693.44;5081033;28;20041;-85
2022/06/22 06:50:01;;;;;;;3.03;1.17;;;;;;;19.08;100.00;100662.19;5063038;28;20053;-85
2022/06/22 06:52:33;;;;;;;3.92;1.20;;;;;;;18.63;100.00;100651.34;5054176;28;20061;-85
2022/06/22 06:55:21;;;;;;;3.47;1.35;;;;;;;19.63;100.00;100675.75;5078587;28;20071;-85
2022/06/22 06:58:11;;;;;;;2.85;1.08;;;;;;;20.08;100.00;100690.94;5065969;28;20057;-84
2022/06/22 07:00:39;;;;;;;4.20;1.55;;;;;;;19.63;100.00;100633.25;5062096;28;20048;-86
2022/06/22 07:03:13;;;;;;;4.45;1.25;;;;;;;20.15;100.00;100654.94;5055500;28;20396;-86
2022/06/22 07:05:41;;;;;;;3.90;1.20;;;;;;;20.53;100.00;100671.44;5067021;28;20049;-86
2022/06/22 07:08:20;;;;;;;4.15;1.60;;;;;;;19.94;100.00;100660.13;5069610;28;20087;-86
2022/06/22 07:11:22;;;;;;;3.72;1.25;;;;;;;20.69;100.00;100660.44;5064907;28;20045;-84
2022/06/22 07:13:54;;;;;;;2.92;1.05;;;;;;;20.50;100.00;100616.69;5062111;28;20102;-86
2022/06/22 07:16:25;;;;;;;3.58;1.42;;;;;;;20.32;100.00;100642.94;5062525;28;20079;-86
2022/06/22 07:18:58;;;;;;;3.72;1.10;;;;;;;20.28;100.00;100657.47;5052333;28;20063;-86
2022/06/22 07:21:42;;;;;;;3.50;1.30;;;;;;;20.88;100.00;100654.47;5056734;28;20058;-86
2022/06/22 07:24:22;;;;;;;3.40;1.30;;;;;;;20.61;100.00;100653.03;5067042;28;20072;-86
2022/06/22 07:26:54;;;;;;;1.73;0.90;;;;;;;20.83;100.00;100633.53;5064890;28;20083;-86
2022/06/22 07:29:58;;;;;;;2.47;1.02;;;;;;;20.80;100.00;100586.72;5066458;28;20049;-86
2022/06/22 07:32:48;;;;;;;3.17;1.20;;;;;;;20.71;100.00;100587.50;5058932;28;20071;-86
2022/06/22 07:35:24;;;;;;;2.65;0.98;;;;;;;20.66;100.00;100605.66;5062934;28;20048;-86
2022/06/22 07:38:14;;;;;;;4.53;1.20;;;;;;;20.76;100.00;100627.03;5065742;28;20383;-86
2022/06/22 07:43:33;;;;;;;3.60;1.15;;;;;;;21.18;100.00;100574.69;5068146;28;20079;-86
2022/06/22 07:46:00;;;;;;;2.33;1.00;;;;;;;21.15;100.00;100622.03;5068560;28;20103;-86
2022/06/22 07:48:40;;;;;;;3.72;1.30;;;;;;;21.77;100.00;100572.38;5069764;28;20462;-85
2022/06/22 07:51:16;;;;;;;4.03;1.35;;;;;;;21.93;100.00;100587.84;5086267;28;20059;-84
2022/06/22 07:53:58;;;;;;;2.55;1.00;;;;;;;21.99;100.00;100580.19;5074410;28;20043;-82
2022/06/22 07:56:37;;;;;;;4.40;1.07;;;;;;;22.29;100.00;100614.94;5071422;28;20061;-85
2022/06/22 07:59:11;;;;;;;2.88;1.00;;;;;;;21.85;100.00;100585.88;5070257;28;20064;-83
2022/06/22 08:01:47;;;;;;;1.98;0.90;;;;;;;22.48;100.00;100611.47;5070490;28;20069;-85
2022/06/22 08:04:31;;;;;;;2.25;0.90;;;;;;;22.74;100.00;100609.13;5071227;28;20041;-85
2022/06/22 08:07:10;;;;;;;2.22;0.90;;;;;;;22.20;100.00;100555.22;5070798;28;20052;-86
2022/06/22 08:10:01;;;;;;;1.85;0.90;;;;;;;22.89;100.00;100604.19;5057253;28;20053;-85
2022/06/22 08:13:16;;;;;;;2.55;1.00;;;;;;;22.96;100.00;100616.00;5059550;28;20468;-86
2022/06/22 08:15:50;;;;;;;2.60;1.08;;;;;;;22.50;100.00;100583.66;5059214;28;20033;-86
2022/06/22 08:18:19;;;;;;;4.18;1.10;;;;;;;22.41;100.00;100581.81;5062195;28;20049;-86
2022/06/22 08:20:51;;;;;;;3.05;1.00;;;;;;;22.35;100.00;100625.06;5074169;28;20060;-86
2022/06/22 08:23:22;;;;;;;4.85;1.10;;;;;;;22.51;100.00;100593.34;5070435;28;20053;-86
2022/06/22 08:26:00;;;;;;;1.63;0.73;;;;;;;22.87;100.00;100604.31;5070536;28;20045;-86
2022/06/22 08:28:31;;;;;;;2.03;0.90;;;;;;;23.58;100.00;100615.66;5070107;28;20076;-86
2022/06/22 08:30:57;;;;;;;3.42;0.90;;;;;;;24.31;100.00;100572.13;5052980;28;20033;-85
2022/06/22 08:33:38;;;;;;;1.60;0.90;;;;;;;23.86;100.00;100609.38;5071289;28;20068;-87
2022/06/22 08:36:17;;;;;;;1.73;0.70;;;;;;;24.69;100.00;100578.22;5059335;28;20440;-85
2022/06/22 08:38:57;;;;;;;2.60;0.90;;;;;;;24.54;100.00;100572.53;5066157;28;20071;-85
2022/06/22 08:41:52;;;;;;;1.85;0.90;;;;;;;25.10;94.20;100581.22;5068551;28;20067;-86
2022/06/22 08:44:36;;;;;;;1.35;0.70;;;;;;;25.81;99.10;100609.66;5064898;28;20044;-84
2022/06/22 08:47:36;;;;;;;2.05;0.90;;;;;;;24.04;96.42;100590.72;5071022;28;20053;-86
2022/06/22 08:50:22;;;;;;;1.30;0.77;;;;;;;25.29;95.30;100607.03;5064425;28;20115;-86
2022/06/22 08:53:28;;;;;;;2.60;0.90;;;;;;;25.16;100.00;100596.66;5061462;28;20048;-86
2022/06/22 08:56:31;;;;;;;2.25;0.90;;;;;;;24.92;98.99;100583.94;5073745;28;20079;-86
2022/06/22 08:59:04;;;;;;;7.90;1.10;;;;;;;25.63;95.56;100582.09;5081033;28;20045;-86
2022/06/22 09:01:33;;;;;;;;;;;;;;;25.87;92.54;100590.28;5067778;28;20060;-85
2022/06/22 09:04:29;;;;;;;2.42;0.88;;;;;;;24.62;97.74;100533.31;5062222;28;19920;-87
2022/06/22 09:07:38;;;;;;;3.70;1.08;;;;;;;24.74;95.51;100573.25;5068394;28;20085;-86
2022/06/22 09:10:49;;;;;;;1.85;0.80;;;;;;;24.91;97.13;100550.13;5063265;28;20072;-85
2022/06/22 09:13:33;;;;;;;1.25;0.75;;;;;;;24.59;97.95;100549.69;5053875;28;20060;-84
2022/06/22 09:16:09;;;;;;;1.95;0.90;;;;;;;24.92;94.42;100541.94;5067429;28;20045;-86
2022/06/22 09:18:58;;;;;;;2.38;1.05;;;;;;;25.09;88.97;100595.63;5067976;28;20112;-86
2022/06/22 09:21:44;;;;;;;2.15;0.82;;;;;;;25.83;88.29;100606.81;5059493;28;20049;-86
2022/06/22 09:24:23;;;;;;;4.63;1.20;;;;;;;26.34;82.50;100579.03;5066136;28;20065;-86
2022/06/22 09:27:14;;;;;;;2.17;0.82;;;;;;;25.88;82.76;100596.47;5056729;28;20079;-86
2022/06/22 09:29:55;;;;;;;1.55;0.70;;;;;;;26.34;77.30;100579.03;5067416;28;20040;-86
2022/06/22 09:32:34;;;;;;;2.20;0.80;;;;;;;27.34;74.35;100588.00;5068250;28;20128;-85
2022/06/22 09:35:30;;;;;;;1.75;0.88;;;;;;;27.29;70.14;100545.53;5068055;28;20045;-84
2022/06/22 09:38:05;;;;;;;;;;;;;;;26.61;68.12;100582.47;5069177;28;20124;-86
2022/06/22 09:40:45;;;;;;;1.83;0.80;;;;;;;26.87;69.56;100547.38;5066617;28;19989;-85
2022/06/22 09:43:22;;;;;;;3.28;1.00;;;;;;;26.11;69.72;100565.38;5057373;28;20060;-85
2022/06/22 09:46:21;;;;;;;1.90;0.77;;;;;;;26.00;72.49;100552.28;5062755;28;20100;-86
2022/06/22 09:49:36;;;;;;;1.92;0.80;;;;;;;26.77;69.22;100551.25;5049124;28;20064;-87
2022/06/22 09:52:26;;;;;;;4.13;1.23;;;;;;;25.71;72.86;100507.06;5061644;28;20045;-86
2022/06/22 09:58:09;;;;;;;1.33;0.70;;;;;;;26.88;67.29;100516.03;5063647;28;20099;-86
2022/06/22 10:00:58;;;;;;;1.50;0.77;;;;;;;26.88;64.47;100542.88;5059619;28;20486;-86
2022/06/22 10:04:02;;;;;;;3.63;0.80;;;;;;;27.60;66.53;100547.44;5062839;28;20041;-87
2022/06/22 10:06:57;;;;;;;2.20;0.70;;;;;;;27.78;65.72;100542.69;5067281;28;20064;-86
2022/06/22 10:09:48;;;;;;;2.92;0.95;;;;;;;26.73;68.49;100531.97;5066103;28;20049;-87
2022/06/22 10:12:37;;;;;;;2.78;0.90;;;;;;;26.79;68.61;100480.28;5060701;28;20045;-87
2022/06/22 10:15:41;;;;;;;2.28;0.90;;;;;;;27.52;65.64;100529.50;5066071;28;20131;-86
2022/06/22 10:18:09;;;;;;;2.05;0.90;;;;;;;28.17;66.18;100530.22;5067693;28;20053;-87
2022/06/22 10:21:11;;;;;;;2.03;0.88;;;;;;;28.23;65.10;100532.19;5066441;28;20401;-86
2022/06/22 10:24:07;;;;;;;2.13;0.82;;;;;;;28.36;65.77;100518.97;5067712;28;20045;-85
2022/06/22 10:26:57;;;;;;;2.38;1.00;;;;;;;27.98;62.90;100536.91;5059345;28;20064;-87
2022/06/22 10:29:59;;;;;;;2.42;1.00;;;;;;;28.38;62.45;100537.63;5076884;28;20116;-87
2022/06/22 10:33:18;;;;;;;1.50;0.80;;;;;;;28.32;61.30;100535.69;5065392;28;20059;-87
2022/06/22 10:36:02;;;;;;;4.10;1.00;;;;;;;27.82;59.72;100529.72;5077006;28;20068;-86
2022/06/22 10:39:21;;;;;;;1.17;0.70;;;;;;;27.93;60.46;100521.28;5053864;28;20074;-86
2022/06/22 10:45:16;;;;;;;2.85;0.90;;;;;;;27.80;56.00;100496.75;5067302;28;20055;-86
2022/06/22 10:48:05;;;;;;;1.70;0.80;;;;;;;27.05;58.15;100501.53;5062593;28;20079;-86
2022/06/22 10:50:53;;;;;;;1.90;0.80;;;;;;;28.55;54.86;100508.78;5066584;28;20053;-86
2022/06/22 10:53:35;;;;;;;1.30;0.75;;;;;;;27.07;58.51;100507.59;5057598;28;20080;-86
2022/06/22 10:56:33;;;;;;;2.30;0.90;;;;;;;28.45;52.85;100522.44;5066977;28;20503;-87
2022/06/22 10:59:31;;;;;;;2.13;0.68;;;;;;;28.25;53.87;100503.25;5065832;28;20052;-86
2022/06/22 11:02:49;;;;;;;1.98;0.80;;;;;;;28.74;54.79;100521.75;5066041;28;20051;-86
2022/06/22 11:05:58;;;;;;;1.85;0.75;;;;;;;28.33;51.57;100519.34;5065805;28;20037;-85
2022/06/22 11:08:51;;;;;;;1.75;0.80;;;;;;;28.45;55.49;100524.31;5067452;28;20048;-86
2022/06/22 11:11:56;;;;;;;1.15;0.60;;;;;;;28.36;55.87;100520.84;5058691;28;20081;-84
2022/06/22 11:14:55;;;;;;;1.48;0.70;;;;;;;28.23;52.92;100529.50;5061788;28;20041;-87
2022/06/22 11:18:10;;;;;;;2.15;0.75;;;;;;;28.06;52.83;100519.84;5058407;28;20053;-87
2022/06/22 11:21:15;;;;;;;2.35;0.70;;;;;;;27.92;53.67;100514.19;5058235;28;20068;-86
2022/06/22 11:24:27;;;;;;;2.50;0.90;;;;;;;28.10;54.75;100508.56;5067115;28;20052;-87
2022/06/22 11:30:48;;;;;;;1.00;0.60;;;;;;;29.15;50.54;100507.06;5068492;28;20052;-87
2022/06/22 11:33:32;;;;;;;1.23;0.60;;;;;;;29.91;50.87;100504.97;5062268;28;20037;-87
2022/06/22 11:36:37;;;;;;;1.48;0.70;;;;;;;29.35;49.52;100502.78;5063355;28;20132;-86
2022/06/22 11:39:38;;;;;;;0.88;0.50;;;;;;;29.93;45.97;100506.66;5050499;28;20109;-85
2022/06/22 11:42:37;;;;;;;1.20;0.52;;;;;;;30.25;46.24;100505.31;5067440;28;20049;-85
2022/06/22 11:48:19;;;;;;;1.63;0.50;;;;;;;30.05;46.32;100502.44;5049207;28;20053;-88
2022/06/22 11:50:52;;;;;;;1.27;0.50;;;;;;;30.25;44.92;100494.53;5045995;28;20095;-87
2022/06/22 11:53:44;;;;;;;1.35;0.43;;;;;;;29.95;43.66;100499.19;5049529;28;20051;-88
2022/06/22 11:56:32;;;;;;;2.13;0.65;;;;;;;29.89;42.92;100496.22;5050092;28;20045;-88
2022/06/22 11:59:14;;;;;;;1.63;0.60;;;;;;;29.66;42.58;100496.34;5050095;28;20059;-88
2022/06/22 12:01:41;;;;;;;0.55;0.40;;;;;;;28.72;42.47;100490.59;5042946;28;20044;-87
2022/06/22 12:04:23;;;;;;;0.75;0.60;;;;;;;28.77;42.99;100488.19;5046485;28;20144;-88
2022/06/22 12:07:16;;;;;;;0.55;0.50;;;;;;;29.18;44.87;100485.13;5044710;28;20047;-88
2022/06/22 12:10:31;;;;;;;1.50;0.53;;;;;;;29.20;43.69;100477.69;5047085;28;20064;-88
2022/06/22 12:13:20;;;;;;;2.13;0.60;;;;;;;28.97;45.40;100481.28;5024822;28;20049;-88
2022/06/22 12:16:29;;;;;;;1.45;0.65;;;;;;;28.98;44.44;100488.31;5048336;28;20060;-88
2022/06/22 12:19:10;;;;;;;1.15;0.65;;;;;;;28.96;44.61;100465.28;5040496;28;20619;-87
2022/06/22 12:22:01;;;;;;;1.88;0.60;;;;;;;28.71;45.96;100492.47;5048762;28;20067;-87
2022/06/22 12:25:08;;;;;;;2.50;0.70;;;;;;;29.32;45.04;100481.59;5049381;28;20051;-88
2022/06/22 12:27:55;;;;;;;0.88;0.60;;;;;;;28.67;49.49;100485.78;5037488;28;20513;-87
2022/06/22 12:30:44;;;;;;;2.28;0.70;;;;;;;27.51;57.10;100489.34;5048908;28;20053;-88
2022/06/22 12:33:17;;;;;;;4.32;0.80;;;;;;;27.74;57.24;100468.72;5049752;28;20053;-88
2022/06/22 12:36:04;;;;;;;2.42;0.90;;;;;;;27.64;60.54;100477.00;5070063;28;20044;-87
2022/06/22 12:38:34;;;;;;;2.10;0.70;;;;;;;28.53;57.83;100481.16;5053276;28;20056;-88
2022/06/22 12:41:28;;;;;;;3.08;0.75;;;;;;;28.73;54.88;100473.44;5041409;28;20052;-87
2022/06/22 12:44:31;;;;;;;2.33;0.80;;;;;;;28.90;54.70;100466.03;5054743;28;20673;-87
2022/06/22 12:47:44;;;;;;;1.15;0.60;;;;;;;29.50;54.09;100466.88;5045493;28;20052;-87
2022/06/22 12:50:28;;;;;;;2.03;0.60;;;;;;;29.00;54.58;100444.19;5044051;28;20053;-87
2022/06/22 12:53:03;;;;;;;3.30;0.80;;;;;;;29.34;52.85;100435.53;5053056;28;20119;-88
2022/06/22 12:55:36;;;;;;;7.30;0.98;;;;;;;28.96;55.33;100417.59;5069348;28;20045;-87
2022/06/22 12:58:41;;;;;;;2.63;0.65;;;;;;;28.86;55.72;100462.03;5052889;28;20045;-87